sensor_id;sensor_type;location;lat;lon;timestamp;temperature;humidity
12957;DHT22;6543;48.836;10.092;2022-11-12T00:00:11;5.00;99.90
12957;DHT22;6543;48.836;10.092;2022-11-12T00:02:38;5.10;99.90
12957;DHT22;6543;48.836;10.092;2022-11-12T00:05:07;5.10;99.90
12957;DHT22;6543;48.836;10.092;2022-11-12T00:07:34;5.10;99.90
12957;DHT22;6543;48.836;10.092;2022-11-12T00:10:01;5.00;99.90
12957;DHT22;6543;48.836;10.092;2022-11-12T00:12:29;5.00;99.90
12957;DHT22;6543;48.836;10.092;2022-11-12T00:14:55;4.90;99.90
12957;DHT22;6543;48.836;10.092;2022-11-12T00:17:22;4.90;99.90
12957;DHT22;6543;48.836;10.092;2022-11-12T00:19:49;4.90;99.90
12957;DHT22;6543;48.836;10.092;2022-11-12T00:22:17;5.00;99.90
12957;DHT22;6543;48.836;10.092;2022-11-12T00:24:44;4.90;99.90
12957;DHT22;6543;48.836;10.092;2022-11-12T00:27:11;5.00;99.90
12957;DHT22;6543;48.836;10.092;2022-11-12T00:29:38;5.20;99.90
12957;DHT22;6543;48.836;10.092;2022-11-12T00:32:06;5.30;99.90
12957;DHT22;6543;48.836;10.092;2022-11-12T00:34:33;5.30;99.90
12957;DHT22;6543;48.836;10.092;2022-11-12T00:37:00;5.30;99.90
12957;DHT22;6543;48.836;10.092;2022-11-12T00:39:29;5.20;99.90
12957;DHT22;6543;48.836;10.092;2022-11-12T00:41:56;5.20;99.90
12957;DHT22;6543;48.836;10.092;2022-11-12T00:44:23;5.30;99.90
12957;DHT22;6543;48.836;10.092;2022-11-12T00:46:50;5.20;99.90
12957;DHT22;6543;48.836;10.092;2022-11-12T00:49:16;5.20;99.90
12957;DHT22;6543;48.836;10.092;2022-11-12T00:51:43;5.10;99.90
12957;DHT22;6543;48.836;10.092;2022-11-12T00:54:10;5.10;99.90
12957;DHT22;6543;48.836;10.092;2022-11-12T00:56:38;5.10;99.90
12957;DHT22;6543;48.836;10.092;2022-11-12T00:59:05;5.10;99.90
12957;DHT22;6543;48.836;10.092;2022-11-12T01:01:32;5.10;99.90
12957;DHT22;6543;48.836;10.092;2022-11-12T01:03:59;5.20;99.90
12957;DHT22;6543;48.836;10.092;2022-11-12T01:06:26;5.20;99.90
12957;DHT22;6543;48.836;10.092;2022-11-12T01:08:54;5.20;99.90
12957;DHT22;6543;48.836;10.092;2022-11-12T01:11:24;5.30;99.90
12957;DHT22;6543;48.836;10.092;2022-11-12T01:13:55;5.40;99.90
12957;DHT22;6543;48.836;10.092;2022-11-12T01:16:28;5.40;99.90
12957;DHT22;6543;48.836;10.092;2022-11-12T01:18:57;5.30;99.90
12957;DHT22;6543;48.836;10.092;2022-11-12T01:21:29;5.30;99.90
12957;DHT22;6543;48.836;10.092;2022-11-12T01:23:57;5.30;99.90
12957;DHT22;6543;48.836;10.092;2022-11-12T01:26:24;5.10;99.90
12957;DHT22;6543;48.836;10.092;2022-11-12T01:28:54;5.00;99.90
12957;DHT22;6543;48.836;10.092;2022-11-12T01:31:23;5.00;99.90
12957;DHT22;6543;48.836;10.092;2022-11-12T01:33:52;4.90;99.90
12957;DHT22;6543;48.836;10.092;2022-11-12T01:36:20;4.80;99.90
12957;DHT22;6543;48.836;10.092;2022-11-12T01:38:47;4.80;99.90
12957;DHT22;6543;48.836;10.092;2022-11-12T01:41:17;4.70;99.90
12957;DHT22;6543;48.836;10.092;2022-11-12T01:43:44;4.60;99.90
12957;DHT22;6543;48.836;10.092;2022-11-12T01:46:17;4.50;99.90
12957;DHT22;6543;48.836;10.092;2022-11-12T01:48:49;4.50;99.90
12957;DHT22;6543;48.836;10.092;2022-11-12T01:51:18;4.40;99.90
12957;DHT22;6543;48.836;10.092;2022-11-12T01:53:48;4.40;99.90
12957;DHT22;6543;48.836;10.092;2022-11-12T01:56:18;4.40;99.90
12957;DHT22;6543;48.836;10.092;2022-11-12T01:58:46;4.40;99.90
12957;DHT22;6543;48.836;10.092;2022-11-12T02:01:16;4.50;99.90
12957;DHT22;6543;48.836;10.092;2022-11-12T02:03:42;4.40;99.90
12957;DHT22;6543;48.836;10.092;2022-11-12T02:06:13;4.40;99.90
12957;DHT22;6543;48.836;10.092;2022-11-12T02:08:41;4.40;99.90
12957;DHT22;6543;48.836;10.092;2022-11-12T02:11:11;4.30;99.90
12957;DHT22;6543;48.836;10.092;2022-11-12T02:13:39;4.30;99.90
12957;DHT22;6543;48.836;10.092;2022-11-12T02:16:25;4.30;99.90
12957;DHT22;6543;48.836;10.092;2022-11-12T02:18:52;4.30;99.90
12957;DHT22;6543;48.836;10.092;2022-11-12T02:21:21;3.80;99.90
12957;DHT22;6543;48.836;10.092;2022-11-12T02:23:56;4.40;99.90
12957;DHT22;6543;48.836;10.092;2022-11-12T02:26:24;4.30;99.90
12957;DHT22;6543;48.836;10.092;2022-11-12T02:28:51;4.30;99.90
12957;DHT22;6543;48.836;10.092;2022-11-12T02:31:18;4.20;99.90
12957;DHT22;6543;48.836;10.092;2022-11-12T02:33:45;4.20;99.90
12957;DHT22;6543;48.836;10.092;2022-11-12T02:36:12;4.30;99.90
12957;DHT22;6543;48.836;10.092;2022-11-12T02:38:40;4.20;99.90
12957;DHT22;6543;48.836;10.092;2022-11-12T02:41:06;4.10;99.90
12957;DHT22;6543;48.836;10.092;2022-11-12T02:43:33;4.10;99.90
12957;DHT22;6543;48.836;10.092;2022-11-12T02:46:00;4.10;99.90
12957;DHT22;6543;48.836;10.092;2022-11-12T02:48:27;4.10;99.90
12957;DHT22;6543;48.836;10.092;2022-11-12T02:50:54;4.20;99.90
12957;DHT22;6543;48.836;10.092;2022-11-12T02:53:20;4.20;99.90
12957;DHT22;6543;48.836;10.092;2022-11-12T02:55:49;4.20;99.90
12957;DHT22;6543;48.836;10.092;2022-11-12T02:58:15;4.20;99.90
12957;DHT22;6543;48.836;10.092;2022-11-12T03:00:42;4.30;99.90
12957;DHT22;6543;48.836;10.092;2022-11-12T03:03:09;4.20;99.90
12957;DHT22;6543;48.836;10.092;2022-11-12T03:05:36;4.20;99.90
12957;DHT22;6543;48.836;10.092;2022-11-12T03:08:05;4.20;99.90
12957;DHT22;6543;48.836;10.092;2022-11-12T03:10:33;4.30;99.90
12957;DHT22;6543;48.836;10.092;2022-11-12T03:13:01;4.30;99.90
12957;DHT22;6543;48.836;10.092;2022-11-12T03:15:28;4.20;99.90
12957;DHT22;6543;48.836;10.092;2022-11-12T03:17:56;4.20;99.90
12957;DHT22;6543;48.836;10.092;2022-11-12T03:20:23;4.20;99.90
12957;DHT22;6543;48.836;10.092;2022-11-12T03:22:58;4.20;99.90
12957;DHT22;6543;48.836;10.092;2022-11-12T03:25:25;4.20;99.90
12957;DHT22;6543;48.836;10.092;2022-11-12T03:27:56;4.20;99.90
12957;DHT22;6543;48.836;10.092;2022-11-12T03:30:26;4.30;99.90
12957;DHT22;6543;48.836;10.092;2022-11-12T03:32:54;4.30;99.90
12957;DHT22;6543;48.836;10.092;2022-11-12T03:35:21;5.50;99.90
12957;DHT22;6543;48.836;10.092;2022-11-12T03:37:48;4.30;99.90
12957;DHT22;6543;48.836;10.092;2022-11-12T03:40:16;4.30;99.90
12957;DHT22;6543;48.836;10.092;2022-11-12T03:42:44;4.30;99.90
12957;DHT22;6543;48.836;10.092;2022-11-12T03:45:12;4.30;99.90
12957;DHT22;6543;48.836;10.092;2022-11-12T03:47:42;4.30;99.90
12957;DHT22;6543;48.836;10.092;2022-11-12T03:50:09;4.40;99.90
12957;DHT22;6543;48.836;10.092;2022-11-12T03:52:36;4.40;99.90
12957;DHT22;6543;48.836;10.092;2022-11-12T03:55:04;4.50;99.90
12957;DHT22;6543;48.836;10.092;2022-11-12T03:57:31;4.60;99.90
12957;DHT22;6543;48.836;10.092;2022-11-12T03:59:58;4.60;99.90
12957;DHT22;6543;48.836;10.092;2022-11-12T04:02:25;4.60;99.90
12957;DHT22;6543;48.836;10.092;2022-11-12T04:04:56;4.70;99.90
12957;DHT22;6543;48.836;10.092;2022-11-12T04:07:40;4.70;99.90
12957;DHT22;6543;48.836;10.092;2022-11-12T04:10:25;4.70;99.90
12957;DHT22;6543;48.836;10.092;2022-11-12T04:12:53;4.70;99.90
12957;DHT22;6543;48.836;10.092;2022-11-12T04:15:38;4.80;99.90
12957;DHT22;6543;48.836;10.092;2022-11-12T04:18:05;4.80;99.90
12957;DHT22;6543;48.836;10.092;2022-11-12T04:20:50;4.80;99.90
12957;DHT22;6543;48.836;10.092;2022-11-12T04:23:34;5.00;99.90
12957;DHT22;6543;48.836;10.092;2022-11-12T04:26:01;5.00;99.90
12957;DHT22;6543;48.836;10.092;2022-11-12T04:28:45;5.00;99.90
12957;DHT22;6543;48.836;10.092;2022-11-12T04:31:26;5.00;99.90
12957;DHT22;6543;48.836;10.092;2022-11-12T04:33:53;5.00;99.90
12957;DHT22;6543;48.836;10.092;2022-11-12T04:36:21;5.00;99.90
12957;DHT22;6543;48.836;10.092;2022-11-12T04:38:48;5.00;99.90
12957;DHT22;6543;48.836;10.092;2022-11-12T04:41:14;5.00;99.90
12957;DHT22;6543;48.836;10.092;2022-11-12T04:43:59;4.90;99.90
12957;DHT22;6543;48.836;10.092;2022-11-12T04:46:43;5.00;99.90
12957;DHT22;6543;48.836;10.092;2022-11-12T04:49:10;5.00;99.90
12957;DHT22;6543;48.836;10.092;2022-11-12T04:51:38;5.00;99.90
12957;DHT22;6543;48.836;10.092;2022-11-12T04:54:22;5.00;99.90
12957;DHT22;6543;48.836;10.092;2022-11-12T04:56:49;5.00;99.90
12957;DHT22;6543;48.836;10.092;2022-11-12T04:59:16;5.00;99.90
12957;DHT22;6543;48.836;10.092;2022-11-12T05:01:43;5.00;99.90
12957;DHT22;6543;48.836;10.092;2022-11-12T05:04:09;5.00;99.90
12957;DHT22;6543;48.836;10.092;2022-11-12T05:06:37;5.10;99.90
12957;DHT22;6543;48.836;10.092;2022-11-12T05:09:16;5.10;99.90
12957;DHT22;6543;48.836;10.092;2022-11-12T05:11:43;5.10;99.90
12957;DHT22;6543;48.836;10.092;2022-11-12T05:14:10;5.10;99.90
12957;DHT22;6543;48.836;10.092;2022-11-12T05:16:37;5.00;99.90
12957;DHT22;6543;48.836;10.092;2022-11-12T05:19:05;5.00;99.90
12957;DHT22;6543;48.836;10.092;2022-11-12T05:21:31;4.90;99.90
12957;DHT22;6543;48.836;10.092;2022-11-12T05:24:17;4.90;99.90
12957;DHT22;6543;48.836;10.092;2022-11-12T05:26:44;4.90;99.90
12957;DHT22;6543;48.836;10.092;2022-11-12T05:29:11;4.90;99.90
12957;DHT22;6543;48.836;10.092;2022-11-12T05:31:38;4.90;99.90
12957;DHT22;6543;48.836;10.092;2022-11-12T05:34:04;4.90;99.90
12957;DHT22;6543;48.836;10.092;2022-11-12T05:36:31;4.90;99.90
12957;DHT22;6543;48.836;10.092;2022-11-12T05:38:58;4.80;99.90
12957;DHT22;6543;48.836;10.092;2022-11-12T05:41:26;4.80;99.90
12957;DHT22;6543;48.836;10.092;2022-11-12T05:43:53;4.70;99.90
12957;DHT22;6543;48.836;10.092;2022-11-12T05:46:20;4.70;99.90
12957;DHT22;6543;48.836;10.092;2022-11-12T05:48:47;4.70;99.90
12957;DHT22;6543;48.836;10.092;2022-11-12T05:51:14;4.50;99.90
12957;DHT22;6543;48.836;10.092;2022-11-12T05:53:41;4.50;99.90
12957;DHT22;6543;48.836;10.092;2022-11-12T05:56:08;4.50;99.90
12957;DHT22;6543;48.836;10.092;2022-11-12T05:58:37;4.40;99.90
12957;DHT22;6543;48.836;10.092;2022-11-12T06:01:04;4.40;99.90
12957;DHT22;6543;48.836;10.092;2022-11-12T06:03:31;4.40;99.90
12957;DHT22;6543;48.836;10.092;2022-11-12T06:05:58;4.40;99.90
12957;DHT22;6543;48.836;10.092;2022-11-12T06:08:25;4.40;99.90
12957;DHT22;6543;48.836;10.092;2022-11-12T06:10:53;4.40;99.90
12957;DHT22;6543;48.836;10.092;2022-11-12T06:13:21;4.40;99.90
12957;DHT22;6543;48.836;10.092;2022-11-12T06:15:50;4.40;99.90
12957;DHT22;6543;48.836;10.092;2022-11-12T06:18:17;4.40;99.90
12957;DHT22;6543;48.836;10.092;2022-11-12T06:20:43;4.30;99.90
12957;DHT22;6543;48.836;10.092;2022-11-12T06:23:30;4.30;99.90
12957;DHT22;6543;48.836;10.092;2022-11-12T06:25:57;4.30;99.90
12957;DHT22;6543;48.836;10.092;2022-11-12T06:28:24;4.30;99.90
12957;DHT22;6543;48.836;10.092;2022-11-12T06:30:53;4.30;99.90
12957;DHT22;6543;48.836;10.092;2022-11-12T06:33:20;4.20;99.90
12957;DHT22;6543;48.836;10.092;2022-11-12T06:35:46;4.20;99.90
12957;DHT22;6543;48.836;10.092;2022-11-12T06:38:13;4.10;99.90
12957;DHT22;6543;48.836;10.092;2022-11-12T06:40:40;4.10;99.90
12957;DHT22;6543;48.836;10.092;2022-11-12T06:43:08;4.10;99.90
12957;DHT22;6543;48.836;10.092;2022-11-12T06:45:36;4.10;99.90
12957;DHT22;6543;48.836;10.092;2022-11-12T06:48:04;4.20;99.90
12957;DHT22;6543;48.836;10.092;2022-11-12T06:50:31;4.20;99.90
12957;DHT22;6543;48.836;10.092;2022-11-12T06:52:58;4.20;99.90
12957;DHT22;6543;48.836;10.092;2022-11-12T06:55:25;4.30;99.90
12957;DHT22;6543;48.836;10.092;2022-11-12T06:57:52;4.30;99.90
12957;DHT22;6543;48.836;10.092;2022-11-12T07:00:19;4.30;99.90
12957;DHT22;6543;48.836;10.092;2022-11-12T07:02:46;4.40;99.90
12957;DHT22;6543;48.836;10.092;2022-11-12T07:05:14;4.30;99.90
12957;DHT22;6543;48.836;10.092;2022-11-12T07:07:41;4.40;99.90
12957;DHT22;6543;48.836;10.092;2022-11-12T07:10:08;4.40;99.90
12957;DHT22;6543;48.836;10.092;2022-11-12T07:12:35;4.50;99.90
12957;DHT22;6543;48.836;10.092;2022-11-12T07:15:02;4.50;99.90
12957;DHT22;6543;48.836;10.092;2022-11-12T07:17:29;4.50;99.90
12957;DHT22;6543;48.836;10.092;2022-11-12T07:19:56;4.50;99.90
12957;DHT22;6543;48.836;10.092;2022-11-12T07:22:24;4.50;99.90
12957;DHT22;6543;48.836;10.092;2022-11-12T07:24:51;4.70;99.90
12957;DHT22;6543;48.836;10.092;2022-11-12T07:27:18;4.60;99.90
12957;DHT22;6543;48.836;10.092;2022-11-12T07:29:45;4.60;99.90
12957;DHT22;6543;48.836;10.092;2022-11-12T07:32:12;4.70;99.90
12957;DHT22;6543;48.836;10.092;2022-11-12T07:34:39;4.70;99.90
12957;DHT22;6543;48.836;10.092;2022-11-12T07:37:06;4.60;99.90
12957;DHT22;6543;48.836;10.092;2022-11-12T07:39:34;4.70;99.90
12957;DHT22;6543;48.836;10.092;2022-11-12T07:42:01;4.80;99.90
12957;DHT22;6543;48.836;10.092;2022-11-12T07:44:28;4.80;99.90
12957;DHT22;6543;48.836;10.092;2022-11-12T07:46:55;4.90;99.90
12957;DHT22;6543;48.836;10.092;2022-11-12T07:49:21;5.00;99.90
12957;DHT22;6543;48.836;10.092;2022-11-12T07:51:48;5.10;99.90
12957;DHT22;6543;48.836;10.092;2022-11-12T07:54:15;5.10;99.90
12957;DHT22;6543;48.836;10.092;2022-11-12T07:56:43;5.10;99.90
12957;DHT22;6543;48.836;10.092;2022-11-12T07:59:10;5.20;99.90
12957;DHT22;6543;48.836;10.092;2022-11-12T08:01:38;5.30;99.90
12957;DHT22;6543;48.836;10.092;2022-11-12T08:04:08;5.30;99.90
12957;DHT22;6543;48.836;10.092;2022-11-12T08:06:36;5.30;99.90
12957;DHT22;6543;48.836;10.092;2022-11-12T08:09:04;5.30;99.90
12957;DHT22;6543;48.836;10.092;2022-11-12T08:11:32;5.40;99.90
12957;DHT22;6543;48.836;10.092;2022-11-12T08:14:01;5.60;99.90
12957;DHT22;6543;48.836;10.092;2022-11-12T08:16:28;5.70;99.90
12957;DHT22;6543;48.836;10.092;2022-11-12T08:18:54;5.80;99.90
12957;DHT22;6543;48.836;10.092;2022-11-12T08:21:21;5.90;99.90
12957;DHT22;6543;48.836;10.092;2022-11-12T08:23:48;6.00;99.90
12957;DHT22;6543;48.836;10.092;2022-11-12T08:26:17;6.10;99.90
12957;DHT22;6543;48.836;10.092;2022-11-12T08:28:45;6.20;99.90
12957;DHT22;6543;48.836;10.092;2022-11-12T08:31:15;6.30;99.90
12957;DHT22;6543;48.836;10.092;2022-11-12T08:33:42;6.40;99.90
12957;DHT22;6543;48.836;10.092;2022-11-12T08:36:11;6.60;99.90
12957;DHT22;6543;48.836;10.092;2022-11-12T08:38:38;6.70;99.90
12957;DHT22;6543;48.836;10.092;2022-11-12T08:41:07;6.80;99.90
12957;DHT22;6543;48.836;10.092;2022-11-12T08:43:34;6.90;99.90
12957;DHT22;6543;48.836;10.092;2022-11-12T08:46:02;7.00;99.90
12957;DHT22;6543;48.836;10.092;2022-11-12T08:48:31;7.00;99.90
12957;DHT22;6543;48.836;10.092;2022-11-12T08:51:00;7.10;99.90
12957;DHT22;6543;48.836;10.092;2022-11-12T08:53:27;7.10;99.90
12957;DHT22;6543;48.836;10.092;2022-11-12T08:55:54;7.10;99.90
12957;DHT22;6543;48.836;10.092;2022-11-12T08:58:21;7.20;99.90
12957;DHT22;6543;48.836;10.092;2022-11-12T09:00:49;7.30;99.90
12957;DHT22;6543;48.836;10.092;2022-11-12T09:03:17;7.50;99.90
12957;DHT22;6543;48.836;10.092;2022-11-12T09:05:46;7.50;99.90
12957;DHT22;6543;48.836;10.092;2022-11-12T09:08:15;7.50;99.90
12957;DHT22;6543;48.836;10.092;2022-11-12T09:10:42;7.60;99.90
12957;DHT22;6543;48.836;10.092;2022-11-12T09:13:09;7.60;99.90
12957;DHT22;6543;48.836;10.092;2022-11-12T09:15:36;7.70;99.90
12957;DHT22;6543;48.836;10.092;2022-11-12T09:18:04;7.80;99.90
12957;DHT22;6543;48.836;10.092;2022-11-12T09:20:32;8.00;99.90
12957;DHT22;6543;48.836;10.092;2022-11-12T09:23:02;8.10;99.90
12957;DHT22;6543;48.836;10.092;2022-11-12T09:25:30;9.60;99.90
12957;DHT22;6543;48.836;10.092;2022-11-12T09:27:57;8.20;99.90
12957;DHT22;6543;48.836;10.092;2022-11-12T09:30:23;8.30;99.90
12957;DHT22;6543;48.836;10.092;2022-11-12T09:32:56;8.30;99.90
12957;DHT22;6543;48.836;10.092;2022-11-12T09:35:23;8.40;99.90
12957;DHT22;6543;48.836;10.092;2022-11-12T09:37:49;8.40;99.90
12957;DHT22;6543;48.836;10.092;2022-11-12T09:40:19;8.30;99.90
12957;DHT22;6543;48.836;10.092;2022-11-12T09:42:50;8.50;99.90
12957;DHT22;6543;48.836;10.092;2022-11-12T09:45:20;8.40;99.90
12957;DHT22;6543;48.836;10.092;2022-11-12T09:47:51;8.50;99.90
12957;DHT22;6543;48.836;10.092;2022-11-12T09:50:25;8.70;99.90
12957;DHT22;6543;48.836;10.092;2022-11-12T09:52:57;8.70;99.90
12957;DHT22;6543;48.836;10.092;2022-11-12T09:55:32;8.70;99.90
12957;DHT22;6543;48.836;10.092;2022-11-12T09:58:00;8.80;99.90
12957;DHT22;6543;48.836;10.092;2022-11-12T10:00:28;8.80;99.90
12957;DHT22;6543;48.836;10.092;2022-11-12T10:03:02;8.70;99.90
12957;DHT22;6543;48.836;10.092;2022-11-12T10:05:33;8.70;99.90
12957;DHT22;6543;48.836;10.092;2022-11-12T10:11:03;8.80;99.90
12957;DHT22;6543;48.836;10.092;2022-11-12T10:13:40;9.00;99.90
12957;DHT22;6543;48.836;10.092;2022-11-12T10:16:20;9.10;99.90
12957;DHT22;6543;48.836;10.092;2022-11-12T10:19:36;9.10;99.90
12957;DHT22;6543;48.836;10.092;2022-11-12T10:22:17;9.20;99.90
12957;DHT22;6543;48.836;10.092;2022-11-12T10:24:46;8.40;99.90
12957;DHT22;6543;48.836;10.092;2022-11-12T10:27:18;9.40;99.90
12957;DHT22;6543;48.836;10.092;2022-11-12T10:29:51;9.30;99.90
12957;DHT22;6543;48.836;10.092;2022-11-12T10:32:19;9.40;99.90
12957;DHT22;6543;48.836;10.092;2022-11-12T10:34:45;9.40;99.90
12957;DHT22;6543;48.836;10.092;2022-11-12T10:37:16;9.50;99.90
12957;DHT22;6543;48.836;10.092;2022-11-12T10:39:46;9.50;99.90
12957;DHT22;6543;48.836;10.092;2022-11-12T10:42:16;9.40;99.90
12957;DHT22;6543;48.836;10.092;2022-11-12T10:44:43;9.60;99.90
12957;DHT22;6543;48.836;10.092;2022-11-12T10:47:28;9.70;99.90
12957;DHT22;6543;48.836;10.092;2022-11-12T10:50:17;9.70;99.90
12957;DHT22;6543;48.836;10.092;2022-11-12T10:53:02;9.80;99.90
12957;DHT22;6543;48.836;10.092;2022-11-12T10:55:31;9.90;99.90
12957;DHT22;6543;48.836;10.092;2022-11-12T10:58:19;9.90;99.90
12957;DHT22;6543;48.836;10.092;2022-11-12T11:00:58;9.90;99.90
12957;DHT22;6543;48.836;10.092;2022-11-12T11:03:27;9.90;99.90
12957;DHT22;6543;48.836;10.092;2022-11-12T11:05:58;9.80;99.90
12957;DHT22;6543;48.836;10.092;2022-11-12T11:08:34;10.00;99.90
12957;DHT22;6543;48.836;10.092;2022-11-12T11:11:19;10.10;99.90
12957;DHT22;6543;48.836;10.092;2022-11-12T11:13:51;10.20;99.90
12957;DHT22;6543;48.836;10.092;2022-11-12T11:16:20;10.30;99.90
12957;DHT22;6543;48.836;10.092;2022-11-12T11:18:50;10.20;99.90
12957;DHT22;6543;48.836;10.092;2022-11-12T11:21:42;10.30;99.90
12957;DHT22;6543;48.836;10.092;2022-11-12T11:24:35;10.40;99.90
12957;DHT22;6543;48.836;10.092;2022-11-12T11:27:11;10.40;99.90
12957;DHT22;6543;48.836;10.092;2022-11-12T11:29:55;10.30;99.90
12957;DHT22;6543;48.836;10.092;2022-11-12T11:35:33;10.40;99.90
12957;DHT22;6543;48.836;10.092;2022-11-12T11:38:12;10.40;99.90
12957;DHT22;6543;48.836;10.092;2022-11-12T11:40:46;10.50;99.90
12957;DHT22;6543;48.836;10.092;2022-11-12T11:43:31;10.40;99.90
12957;DHT22;6543;48.836;10.092;2022-11-12T11:46:09;10.40;99.90
12957;DHT22;6543;48.836;10.092;2022-11-12T11:48:49;10.30;99.90
12957;DHT22;6543;48.836;10.092;2022-11-12T11:51:40;10.20;99.90
12957;DHT22;6543;48.836;10.092;2022-11-12T11:54:20;10.20;99.90
12957;DHT22;6543;48.836;10.092;2022-11-12T11:56:51;10.30;99.90
12957;DHT22;6543;48.836;10.092;2022-11-12T11:59:35;10.30;99.90
12957;DHT22;6543;48.836;10.092;2022-11-12T12:02:31;10.30;99.90
12957;DHT22;6543;48.836;10.092;2022-11-12T12:05:09;10.30;99.90
12957;DHT22;6543;48.836;10.092;2022-11-12T12:07:47;10.30;99.90
12957;DHT22;6543;48.836;10.092;2022-11-12T12:10:23;10.30;99.90
12957;DHT22;6543;48.836;10.092;2022-11-12T12:12:58;10.40;99.90
12957;DHT22;6543;48.836;10.092;2022-11-12T12:15:39;10.40;99.90
12957;DHT22;6543;48.836;10.092;2022-11-12T12:18:20;10.50;99.90
12957;DHT22;6543;48.836;10.092;2022-11-12T12:20:54;10.70;99.90
12957;DHT22;6543;48.836;10.092;2022-11-12T12:23:28;10.70;99.90
12957;DHT22;6543;48.836;10.092;2022-11-12T12:26:00;10.80;99.90
12957;DHT22;6543;48.836;10.092;2022-11-12T12:28:34;10.80;99.90
12957;DHT22;6543;48.836;10.092;2022-11-12T12:31:08;10.70;99.90
12957;DHT22;6543;48.836;10.092;2022-11-12T12:33:42;10.70;99.90
12957;DHT22;6543;48.836;10.092;2022-11-12T12:36:11;10.70;99.90
12957;DHT22;6543;48.836;10.092;2022-11-12T12:38:43;10.80;99.90
12957;DHT22;6543;48.836;10.092;2022-11-12T12:41:17;10.90;99.90
12957;DHT22;6543;48.836;10.092;2022-11-12T12:43:47;10.90;99.90
12957;DHT22;6543;48.836;10.092;2022-11-12T12:46:16;11.00;99.90
12957;DHT22;6543;48.836;10.092;2022-11-12T12:48:47;11.00;99.90
12957;DHT22;6543;48.836;10.092;2022-11-12T12:51:16;11.10;99.90
12957;DHT22;6543;48.836;10.092;2022-11-12T12:53:43;11.10;99.90
12957;DHT22;6543;48.836;10.092;2022-11-12T12:56:44;11.00;99.90
12957;DHT22;6543;48.836;10.092;2022-11-12T12:59:21;10.90;99.90
12957;DHT22;6543;48.836;10.092;2022-11-12T13:01:55;10.80;99.90
12957;DHT22;6543;48.836;10.092;2022-11-12T13:04:57;11.00;99.90
12957;DHT22;6543;48.836;10.092;2022-11-12T13:07:39;11.10;99.90
12957;DHT22;6543;48.836;10.092;2022-11-12T13:13:29;11.10;99.90
12957;DHT22;6543;48.836;10.092;2022-11-12T13:15:58;11.10;99.90
12957;DHT22;6543;48.836;10.092;2022-11-12T13:21:29;11.20;99.90
12957;DHT22;6543;48.836;10.092;2022-11-12T13:23:58;11.20;99.90
12957;DHT22;6543;48.836;10.092;2022-11-12T13:26:53;11.20;99.90
12957;DHT22;6543;48.836;10.092;2022-11-12T13:29:42;11.20;99.90
12957;DHT22;6543;48.836;10.092;2022-11-12T13:32:30;11.10;99.90
12957;DHT22;6543;48.836;10.092;2022-11-12T13:35:31;11.20;99.90
12957;DHT22;6543;48.836;10.092;2022-11-12T13:38:03;11.10;99.90
12957;DHT22;6543;48.836;10.092;2022-11-12T13:40:42;11.10;99.90
12957;DHT22;6543;48.836;10.092;2022-11-12T13:43:15;11.10;99.90
12957;DHT22;6543;48.836;10.092;2022-11-12T13:45:46;11.10;99.90
12957;DHT22;6543;48.836;10.092;2022-11-12T13:48:18;11.10;99.90
12957;DHT22;6543;48.836;10.092;2022-11-12T13:50:51;11.10;99.90
12957;DHT22;6543;48.836;10.092;2022-11-12T13:53:23;11.10;99.90
12957;DHT22;6543;48.836;10.092;2022-11-12T13:55:52;11.10;99.90
12957;DHT22;6543;48.836;10.092;2022-11-12T13:58:25;10.90;99.90
12957;DHT22;6543;48.836;10.092;2022-11-12T14:00:54;10.90;99.90
12957;DHT22;6543;48.836;10.092;2022-11-12T14:03:21;10.90;99.90
12957;DHT22;6543;48.836;10.092;2022-11-12T14:05:50;10.80;99.90
12957;DHT22;6543;48.836;10.092;2022-11-12T14:08:38;10.80;99.90
12957;DHT22;6543;48.836;10.092;2022-11-12T14:11:25;10.80;99.90
12957;DHT22;6543;48.836;10.092;2022-11-12T14:14:05;10.70;99.90
12957;DHT22;6543;48.836;10.092;2022-11-12T14:16:48;10.70;99.90
12957;DHT22;6543;48.836;10.092;2022-11-12T14:19:56;10.80;99.90
12957;DHT22;6543;48.836;10.092;2022-11-12T14:22:35;10.70;99.90
12957;DHT22;6543;48.836;10.092;2022-11-12T14:25:13;10.60;99.90
12957;DHT22;6543;48.836;10.092;2022-11-12T14:27:41;10.60;99.90
12957;DHT22;6543;48.836;10.092;2022-11-12T14:30:14;10.60;99.90
12957;DHT22;6543;48.836;10.092;2022-11-12T14:32:43;10.60;99.90
12957;DHT22;6543;48.836;10.092;2022-11-12T14:35:35;10.50;99.90
12957;DHT22;6543;48.836;10.092;2022-11-12T14:38:11;10.60;99.90
12957;DHT22;6543;48.836;10.092;2022-11-12T14:40:44;10.50;99.90
12957;DHT22;6543;48.836;10.092;2022-11-12T14:43:30;10.40;99.90
12957;DHT22;6543;48.836;10.092;2022-11-12T14:45:59;10.40;99.90
12957;DHT22;6543;48.836;10.092;2022-11-12T14:48:27;10.30;99.90
12957;DHT22;6543;48.836;10.092;2022-11-12T14:50:58;10.30;99.90
12957;DHT22;6543;48.836;10.092;2022-11-12T14:53:30;10.30;99.90
12957;DHT22;6543;48.836;10.092;2022-11-12T14:56:00;10.20;99.90
12957;DHT22;6543;48.836;10.092;2022-11-12T14:58:29;10.20;99.90
12957;DHT22;6543;48.836;10.092;2022-11-12T15:00:56;10.10;99.90
12957;DHT22;6543;48.836;10.092;2022-11-12T15:03:25;10.10;99.90
12957;DHT22;6543;48.836;10.092;2022-11-12T15:05:58;10.00;99.90
12957;DHT22;6543;48.836;10.092;2022-11-12T15:08:34;10.00;99.90
12957;DHT22;6543;48.836;10.092;2022-11-12T15:11:18;9.90;99.90
12957;DHT22;6543;48.836;10.092;2022-11-12T15:13:46;9.80;99.90
12957;DHT22;6543;48.836;10.092;2022-11-12T15:16:20;9.80;99.90
12957;DHT22;6543;48.836;10.092;2022-11-12T15:21:48;9.70;99.90
12957;DHT22;6543;48.836;10.092;2022-11-12T15:24:18;9.60;99.90
12957;DHT22;6543;48.836;10.092;2022-11-12T15:26:48;9.60;99.90
12957;DHT22;6543;48.836;10.092;2022-11-12T15:29:28;9.50;99.90
12957;DHT22;6543;48.836;10.092;2022-11-12T15:31:58;9.50;99.90
12957;DHT22;6543;48.836;10.092;2022-11-12T15:34:27;9.40;99.90
12957;DHT22;6543;48.836;10.092;2022-11-12T15:36:56;9.40;99.90
12957;DHT22;6543;48.836;10.092;2022-11-12T15:39:24;9.40;99.90
12957;DHT22;6543;48.836;10.092;2022-11-12T15:41:58;9.30;99.90
12957;DHT22;6543;48.836;10.092;2022-11-12T15:44:29;9.30;99.90
12957;DHT22;6543;48.836;10.092;2022-11-12T15:46:58;9.20;99.90
12957;DHT22;6543;48.836;10.092;2022-11-12T15:49:25;9.20;99.90
12957;DHT22;6543;48.836;10.092;2022-11-12T15:51:52;9.10;99.90
12957;DHT22;6543;48.836;10.092;2022-11-12T15:54:19;9.10;99.90
12957;DHT22;6543;48.836;10.092;2022-11-12T15:56:46;9.10;99.90
12957;DHT22;6543;48.836;10.092;2022-11-12T15:59:16;9.10;99.90
12957;DHT22;6543;48.836;10.092;2022-11-12T16:01:43;9.00;99.90
12957;DHT22;6543;48.836;10.092;2022-11-12T16:04:11;9.00;99.90
12957;DHT22;6543;48.836;10.092;2022-11-12T16:06:38;9.00;99.90
12957;DHT22;6543;48.836;10.092;2022-11-12T16:09:05;8.90;99.90
12957;DHT22;6543;48.836;10.092;2022-11-12T16:11:32;8.90;99.90
12957;DHT22;6543;48.836;10.092;2022-11-12T16:14:02;8.90;99.90
12957;DHT22;6543;48.836;10.092;2022-11-12T16:16:32;8.80;99.90
12957;DHT22;6543;48.836;10.092;2022-11-12T16:18:59;8.90;99.90
12957;DHT22;6543;48.836;10.092;2022-11-12T16:21:26;8.80;99.90